Time;durP1;ratioP1;P1;durP2;ratioP2;P2;SDS_P1;SDS_P2;PMS_P1;PMS_P2;Temp;Humidity;BMP_temperature;BMP_pressure;BME280_temperature;BME280_humidity;BME280_pressure;Samples;Min_cycle;Max_cycle;Signal;HPM_P1;HPM_P2
2023/10/01 00:00:32;;;;;;;1.55;1.45;;;9.50;99.90;;;;;;6254844;23;20237;-80
2023/10/01 00:02:59;;;;;;;1.58;1.48;;;9.40;99.90;;;;;;6254916;23;20217;-79
2023/10/01 00:05:26;;;;;;;1.02;1.02;;;9.40;99.90;;;;;;6254038;23;20176;-79
2023/10/01 00:07:53;;;;;;;4.60;2.50;;;9.40;99.90;;;;;;6228113;23;20399;-83
2023/10/01 00:10:22;;;;;;;0.70;0.70;;;9.40;99.90;;;;;;6254182;23;20210;-82
2023/10/01 00:12:50;;;;;;;3.33;1.20;;;9.40;99.90;;;;;;6227560;23;20203;-82
2023/10/01 00:15:21;;;;;;;0.63;0.63;;;9.40;99.90;;;;;;6253923;23;20171;-81
2023/10/01 00:17:48;;;;;;;1.40;1.35;;;9.40;99.90;;;;;;6255957;23;20164;-82
2023/10/01 00:20:23;;;;;;;2.25;2.15;;;9.30;99.90;;;;;;6230666;23;20218;-82
2023/10/01 00:23:05;;;;;;;3.45;2.25;;;9.30;99.90;;;;;;6256470;23;20218;-82
2023/10/01 00:25:35;;;;;;;0.55;0.55;;;9.40;99.90;;;;;;6256087;23;20486;-82
2023/10/01 00:28:07;;;;;;;2.33;2.22;;;9.40;99.90;;;;;;6256142;23;20176;-83
2023/10/01 00:30:36;;;;;;;0.82;0.82;;;9.40;99.90;;;;;;6229599;23;20166;-81
2023/10/01 00:33:06;;;;;;;1.50;1.40;;;9.30;99.90;;;;;;6255327;23;20226;-81
2023/10/01 00:35:37;;;;;;;1.38;1.27;;;9.30;99.90;;;;;;6229766;23;20159;-83
2023/10/01 00:38:05;;;;;;;0.60;0.60;;;9.40;99.90;;;;;;6255478;23;20167;-82
2023/10/01 00:40:32;;;;;;;1.08;1.08;;;9.40;99.90;;;;;;6255857;23;20184;-81
2023/10/01 00:43:03;;;;;;;3.50;2.55;;;9.50;99.90;;;;;;6256454;23;20492;-81
2023/10/01 00:45:31;;;;;;;0.93;0.93;;;9.50;99.90;;;;;;6236418;23;20156;-80
2023/10/01 00:48:13;;;;;;;3.60;2.58;;;9.50;99.90;;;;;;6274437;23;20175;-82
2023/10/01 00:50:41;;;;;;;1.30;1.20;;;9.40;99.90;;;;;;6275042;23;20156;-81
2023/10/01 00:53:09;;;;;;;1.55;1.42;;;9.50;99.90;;;;;;6273389;23;20172;-82
2023/10/01 00:55:37;;;;;;;1.20;1.20;;;9.50;99.90;;;;;;6256777;23;20194;-82
2023/10/01 00:58:04;;;;;;;1.75;1.40;;;9.50;99.90;;;;;;6256045;23;20235;-82
2023/10/01 01:00:31;;;;;;;0.82;0.82;;;9.60;99.90;;;;;;6255325;23;20203;-81
2023/10/01 01:03:07;;;;;;;1.85;1.02;;;9.50;99.90;;;;;;6255079;23;20384;-82
2023/10/01 01:05:50;;;;;;;2.28;2.08;;;9.60;99.90;;;;;;6255037;23;20197;-81
2023/10/01 01:08:28;;;;;;;1.98;1.80;;;9.60;99.90;;;;;;6255001;23;20160;-83
2023/10/01 01:10:57;;;;;;;2.05;1.08;;;9.60;99.90;;;;;;6255386;23;20159;-81
2023/10/01 01:13:25;;;;;;;14.05;2.58;;;9.60;99.90;;;;;;6255009;23;20199;-81
2023/10/01 01:15:53;;;;;;;2.08;1.98;;;9.50;99.90;;;;;;6254845;23;20203;-80
2023/10/01 01:18:20;;;;;;;7.35;1.85;;;9.50;99.90;;;;;;6255338;23;20179;-80
2023/10/01 01:20:57;;;;;;;1.40;1.30;;;9.50;99.90;;;;;;6255014;23;20176;-80
2023/10/01 01:23:25;;;;;;;1.88;1.40;;;9.40;99.90;;;;;;6229206;23;20356;-80
2023/10/01 01:25:54;;;;;;;1.77;1.67;;;9.40;99.90;;;;;;6255938;23;20352;-81
2023/10/01 01:28:27;;;;;;;1.23;1.15;;;9.40;99.90;;;;;;6254747;23;20247;-80
2023/10/01 01:30:55;;;;;;;7.07;2.92;;;9.30;99.90;;;;;;6254678;23;20505;-80
2023/10/01 01:33:26;;;;;;;1.48;1.38;;;9.30;99.90;;;;;;6254536;23;20203;-80
2023/10/01 01:35:54;;;;;;;1.33;1.23;;;9.30;99.90;;;;;;6228520;23;20167;-81
2023/10/01 01:38:22;;;;;;;1.10;1.10;;;9.20;99.90;;;;;;6255017;23;20255;-81
2023/10/01 01:40:51;;;;;;;2.45;2.25;;;9.20;99.90;;;;;;6255829;23;20175;-81
2023/10/01 01:43:30;;;;;;;0.50;0.50;;;9.10;99.90;;;;;;6256038;23;20179;-81
2023/10/01 01:46:04;;;;;;;1.35;1.30;;;9.10;99.90;;;;;;6255133;23;20197;-79
2023/10/01 01:48:33;;;;;;;2.28;2.08;;;9.10;99.90;;;;;;6254851;23;20238;-79
2023/10/01 01:51:02;;;;;;;0.80;0.80;;;9.00;99.90;;;;;;6255391;23;20182;-84
2023/10/01 01:53:34;;;;;;;1.08;1.08;;;9.10;99.90;;;;;;6228896;23;20426;-83
2023/10/01 01:56:09;;;;;;;1.23;0.90;;;9.00;99.90;;;;;;6255831;23;20484;-82
2023/10/01 01:58:39;;;;;;;0.70;0.70;;;9.00;99.90;;;;;;6255813;23;20171;-81
2023/10/01 02:03:46;;;;;;;1.10;1.10;;;9.00;99.90;;;;;;6254846;23;20164;-82
2023/10/01 02:06:26;;;;;;;1.13;1.13;;;9.00;99.90;;;;;;6256859;23;20350;-82
2023/10/01 02:09:00;;;;;;;1.25;1.15;;;9.00;99.90;;;;;;6255891;23;20183;-81
2023/10/01 02:11:32;;;;;;;4.13;3.72;;;9.00;99.90;;;;;;6255330;23;20159;-84
2023/10/01 02:14:03;;;;;;;2.08;1.95;;;9.10;99.90;;;;;;6229578;23;20196;-85
2023/10/01 02:16:38;;;;;;;1.75;1.65;;;9.10;99.90;;;;;;6256208;23;20160;-86
2023/10/01 02:19:21;;;;;;;2.83;2.63;;;9.20;99.90;;;;;;6229988;23;20166;-86
2023/10/01 02:21:52;;;;;;;1.30;1.20;;;9.20;99.90;;;;;;6255837;23;20346;-85
2023/10/01 02:24:37;;;;;;;1.17;1.17;;;9.30;99.90;;;;;;6255060;23;20612;-83
2023/10/01 02:27:06;;;;;;;1.23;1.13;;;9.30;99.90;;;;;;6229412;23;20206;-84
2023/10/01 02:29:45;;;;;;;0.85;0.85;;;9.30;99.90;;;;;;6256104;23;20175;-84
2023/10/01 02:32:14;;;;;;;5.18;3.15;;;9.40;99.90;;;;;;6254673;23;20160;-85
2023/10/01 02:34:42;;;;;;;1.42;0.90;;;9.40;99.90;;;;;;6254939;23;20176;-85
2023/10/01 02:37:10;;;;;;;1.13;1.10;;;9.40;99.90;;;;;;6255113;23;20182;-85
2023/10/01 02:39:37;;;;;;;3.00;1.85;;;9.50;99.90;;;;;;6228448;23;20703;-83
2023/10/01 02:44:39;;;;;;;1.58;1.48;;;9.40;99.90;;;;;;6255310;23;20191;-84
2023/10/01 02:47:16;;;;;;;0.85;0.85;;;9.40;99.90;;;;;;6255578;23;20224;-84
2023/10/01 02:49:52;;;;;;;0.65;0.65;;;9.50;99.90;;;;;;6229198;23;20322;-83
2023/10/01 02:52:26;;;;;;;2.25;2.08;;;9.50;99.90;;;;;;6254794;23;20167;-83
2023/10/01 02:54:59;;;;;;;2.17;2.08;;;9.50;99.90;;;;;;6255544;23;20224;-85
2023/10/01 02:57:27;;;;;;;1.13;1.13;;;9.40;99.90;;;;;;6256374;23;20170;-86
2023/10/01 03:02:42;;;;;;;1.48;1.40;;;9.50;99.90;;;;;;6255351;23;20195;-84
2023/10/01 03:05:28;;;;;;;1.90;1.80;;;9.50;99.90;;;;;;6228691;23;20182;-83
2023/10/01 03:07:56;;;;;;;0.90;0.90;;;9.50;99.90;;;;;;6227842;23;20167;-81
2023/10/01 03:10:26;;;;;;;1.95;1.40;;;9.60;99.90;;;;;;6253804;23;20182;-82
2023/10/01 03:12:58;;;;;;;0.85;0.85;;;9.60;99.90;;;;;;6254428;23;20176;-82
2023/10/01 03:15:35;;;;;;;1.90;1.83;;;9.60;99.90;;;;;;6254446;23;20198;-82
2023/10/01 03:26:05;;;;;;;2.00;1.90;;;9.90;99.90;;;;;;6254811;23;20159;-81
2023/10/01 03:31:46;;;;;;;0.68;0.68;;;9.90;99.90;;;;;;6192206;23;20182;-79
2023/10/01 03:34:28;;;;;;;2.92;0.82;;;10.00;99.90;;;;;;6194860;23;20192;-81
2023/10/01 03:37:00;;;;;;;1.02;1.02;;;10.00;99.90;;;;;;6232621;23;20176;-80
2023/10/01 03:39:27;;;;;;;0.63;0.63;;;10.00;99.90;;;;;;6256718;23;20452;-80
2023/10/01 03:42:10;;;;;;;1.02;1.02;;;10.00;99.90;;;;;;6255591;23;20594;-82
2023/10/01 03:45:37;;;;;;;0.88;0.73;;;10.00;99.90;;;;;;6255232;23;20147;-82
2023/10/01 03:47:29;;;;;;;0.77;0.77;;;10.00;99.90;;;;;;6254480;23;20178;-81
2023/10/01 03:49:57;;;;;;;0.98;0.88;;;9.90;99.90;;;;;;6255701;23;20234;-83
2023/10/01 03:52:29;;;;;;;0.90;0.90;;;10.00;99.90;;;;;;6271759;23;20464;-83
2023/10/01 03:55:25;;;;;;;2.50;1.52;;;10.00;99.90;;;;;;6273668;22;20178;-82
2023/10/01 03:57:56;;;;;;;0.60;0.60;;;10.00;99.90;;;;;;6273027;22;20195;-83
2023/10/01 04:03:07;;;;;;;0.70;0.70;;;10.10;99.90;;;;;;6258749;23;20164;-84
2023/10/01 04:05:37;;;;;;;1.33;1.23;;;10.10;99.90;;;;;;6260080;23;20199;-82
2023/10/01 04:08:07;;;;;;;0.52;0.52;;;10.10;99.90;;;;;;6256692;23;20186;-82
2023/10/01 04:10:38;;;;;;;4.70;1.60;;;10.10;99.90;;;;;;6255893;23;20195;-82
2023/10/01 04:13:12;;;;;;;1.50;1.40;;;10.20;99.90;;;;;;6227184;23;20254;-82
2023/10/01 04:15:49;;;;;;;7.15;1.92;;;10.20;99.90;;;;;;6254062;23;20159;-81
2023/10/01 04:20:48;;;;;;;0.70;0.70;;;10.20;99.90;;;;;;6253902;23;20192;-84
2023/10/01 04:23:31;;;;;;;1.00;1.00;;;10.30;99.90;;;;;;6253480;23;20164;-83
2023/10/01 04:26:04;;;;;;;0.60;0.60;;;10.20;99.90;;;;;;6253748;23;20456;-82
2023/10/01 04:28:36;;;;;;;0.40;0.40;;;10.20;99.90;;;;;;6255055;23;20170;-82
2023/10/01 04:31:09;;;;;;;0.70;0.70;;;10.20;99.90;;;;;;6255506;23;20160;-81
2023/10/01 04:33:42;;;;;;;0.60;0.60;;;10.20;99.90;;;;;;6228126;23;20484;-81
2023/10/01 04:36:11;;;;;;;2.55;2.45;;;10.30;99.90;;;;;;6254418;23;20161;-82
2023/10/01 04:38:41;;;;;;;0.68;0.68;;;10.30;99.90;;;;;;6253957;23;20176;-81
2023/10/01 04:41:22;;;;;;;2.15;1.08;;;10.30;99.90;;;;;;6253549;23;20183;-81
2023/10/01 04:43:52;;;;;;;0.50;0.50;;;10.30;99.90;;;;;;6227489;23;20214;-81
2023/10/01 04:46:25;;;;;;;1.50;1.40;;;10.30;99.90;;;;;;6253436;23;20221;-81
2023/10/01 04:48:52;;;;;;;0.50;0.50;;;10.40;99.90;;;;;;6253823;23;20183;-81
2023/10/01 04:51:22;;;;;;;0.60;0.60;;;10.30;99.90;;;;;;6259758;23;20237;-82
2023/10/01 04:53:49;;;;;;;0.60;0.60;;;10.40;99.90;;;;;;6267324;23;20197;-80
2023/10/01 04:56:22;;;;;;;2.10;2.00;;;10.40;99.90;;;;;;6256930;23;20187;-82
2023/10/01 04:58:54;;;;;;;0.50;0.50;;;10.50;99.90;;;;;;6253244;23;20167;-81
2023/10/01 05:01:25;;;;;;;0.60;0.60;;;10.50;99.90;;;;;;6253814;23;20179;-81
2023/10/01 05:03:52;;;;;;;0.98;0.98;;;10.50;99.90;;;;;;6253386;23;20167;-81
2023/10/01 05:06:20;;;;;;;0.60;0.60;;;10.50;99.90;;;;;;6228411;23;20179;-81
2023/10/01 05:08:50;;;;;;;0.50;0.50;;;10.60;99.90;;;;;;6255204;23;20180;-80
2023/10/01 05:11:21;;;;;;;0.68;0.68;;;10.60;99.90;;;;;;6255057;23;20191;-82
2023/10/01 05:13:51;;;;;;;0.98;0.93;;;10.60;99.90;;;;;;6255027;23;20238;-81
2023/10/01 05:16:26;;;;;;;0.60;0.60;;;10.70;99.90;;;;;;6255518;23;20194;-82
2023/10/01 05:19:09;;;;;;;0.70;0.70;;;10.70;99.90;;;;;;6255862;23;20227;-80
2023/10/01 05:21:47;;;;;;;0.63;0.63;;;10.80;99.90;;;;;;6232200;23;20195;-80
2023/10/01 05:24:35;;;;;;;1.38;1.27;;;10.80;99.90;;;;;;6254986;23;20444;-81
2023/10/01 05:27:18;;;;;;;0.60;0.60;;;10.90;99.90;;;;;;6255773;23;20155;-81
2023/10/01 05:29:46;;;;;;;0.50;0.50;;;11.00;99.90;;;;;;6230016;23;20202;-82
2023/10/01 05:32:13;;;;;;;0.80;0.80;;;11.10;99.90;;;;;;6255594;23;20195;-81
2023/10/01 05:34:46;;;;;;;6.72;2.63;;;11.20;99.90;;;;;;6256173;23;20516;-82
2023/10/01 05:37:36;;;;;;;0.90;0.90;;;11.20;99.90;;;;;;6230127;23;20175;-83
2023/10/01 05:40:17;;;;;;;0.60;0.60;;;11.30;99.90;;;;;;6226351;23;20510;-83
2023/10/01 05:42:47;;;;;;;0.98;0.98;;;11.40;99.90;;;;;;6255731;23;20222;-80
2023/10/01 05:45:36;;;;;;;0.60;0.60;;;11.50;99.90;;;;;;6254954;23;20183;-82
2023/10/01 05:51:45;;;;;;;0.60;0.60;;;11.60;99.90;;;;;;6255583;23;20218;-85
2023/10/01 05:54:18;;;;;;;0.57;0.57;;;11.70;99.90;;;;;;6228592;23;20184;-84
2023/10/01 05:56:49;;;;;;;0.98;0.98;;;11.80;99.90;;;;;;6255585;23;20376;-84
2023/10/01 05:59:20;;;;;;;0.50;0.50;;;11.80;99.90;;;;;;6255467;23;20164;-85
2023/10/01 06:01:48;;;;;;;0.50;0.50;;;11.90;99.90;;;;;;6255289;23;20524;-81
2023/10/01 06:04:18;;;;;;;0.57;0.57;;;12.00;99.90;;;;;;6254430;23;20245;-79
2023/10/01 06:06:46;;;;;;;3.88;3.60;;;12.10;99.90;;;;;;6254810;23;20238;-81
2023/10/01 06:09:16;;;;;;;1.40;0.70;;;12.20;99.90;;;;;;6253356;23;20687;-81
2023/10/01 06:11:59;;;;;;;0.77;0.77;;;12.30;99.90;;;;;;6254862;23;20180;-82
2023/10/01 06:14:38;;;;;;;0.93;0.93;;;12.40;99.90;;;;;;6254705;23;20427;-81
2023/10/01 06:17:07;;;;;;;1.20;1.15;;;12.50;99.90;;;;;;6254231;23;20234;-81
2023/10/01 06:19:38;;;;;;;0.70;0.70;;;12.50;99.90;;;;;;6254463;23;20401;-80
2023/10/01 06:22:22;;;;;;;0.60;0.60;;;12.60;99.90;;;;;;6254278;23;20195;-80
2023/10/01 06:24:51;;;;;;;0.60;0.60;;;12.70;99.90;;;;;;6254957;23;20164;-81
2023/10/01 06:27:19;;;;;;;0.60;0.60;;;12.80;99.90;;;;;;6255194;23;20393;-80
2023/10/01 06:29:52;;;;;;;0.70;0.70;;;12.90;99.90;;;;;;6257327;23;20182;-82
2023/10/01 06:32:21;;;;;;;0.63;0.63;;;13.00;99.90;;;;;;6256201;23;20387;-80
2023/10/01 06:34:51;;;;;;;1.70;1.60;;;13.10;99.90;;;;;;6256954;23;20482;-79
2023/10/01 06:37:21;;;;;;;0.53;0.53;;;13.00;99.90;;;;;;6256712;23;20394;-81
2023/10/01 06:39:48;;;;;;;0.60;0.60;;;13.30;99.90;;;;;;6254903;23;20399;-81
2023/10/01 06:42:18;;;;;;;0.70;0.70;;;13.50;99.90;;;;;;6227977;23;20431;-81
2023/10/01 06:44:58;;;;;;;0.70;0.70;;;13.80;99.90;;;;;;6228608;23;20748;-80
2023/10/01 06:47:28;;;;;;;0.60;0.60;;;13.90;99.90;;;;;;6254042;23;20563;-80
2023/10/01 06:50:14;;;;;;;1.10;1.10;;;14.00;99.90;;;;;;6227926;23;20757;-81
2023/10/01 06:52:41;;;;;;;1.03;1.03;;;14.10;99.90;;;;;;6227920;23;20601;-82
2023/10/01 06:55:25;;;;;;;0.57;0.57;;;14.20;99.90;;;;;;6254843;23;20464;-82
2023/10/01 06:57:55;;;;;;;0.70;0.70;;;14.30;99.90;;;;;;6255118;23;20743;-80
2023/10/01 07:00:22;;;;;;;0.60;0.60;;;14.30;99.90;;;;;;6254604;23;20395;-80
2023/10/01 07:02:49;;;;;;;0.60;0.60;;;14.40;99.90;;;;;;6254296;23;20370;-81
2023/10/01 07:05:22;;;;;;;2.00;1.63;;;14.50;99.90;;;;;;6227261;23;20412;-80
2023/10/01 07:07:49;;;;;;;1.07;1.07;;;14.50;99.90;;;;;;6252345;23;20524;-80
2023/10/01 07:10:19;;;;;;;0.60;0.60;;;14.70;99.90;;;;;;6253404;23;20386;-82
2023/10/01 07:13:04;;;;;;;0.60;0.60;;;14.80;99.90;;;;;;6253718;23;20381;-81
2023/10/01 07:15:39;;;;;;;3.03;2.80;;;15.00;99.90;;;;;;6250396;23;20426;-80
2023/10/01 07:18:19;;;;;;;0.50;0.50;;;15.20;99.90;;;;;;6249590;23;20396;-80
2023/10/01 07:20:49;;;;;;;0.70;0.70;;;15.40;99.90;;;;;;6222766;23;20385;-80
2023/10/01 07:23:21;;;;;;;0.70;0.70;;;15.50;99.90;;;;;;6248660;23;20710;-79
2023/10/01 07:25:57;;;;;;;0.97;0.97;;;15.70;99.90;;;;;;6250391;23;20408;-82
2023/10/01 07:28:24;;;;;;;1.10;1.10;;;15.90;99.90;;;;;;6249320;23;20381;-81
2023/10/01 07:30:56;;;;;;;1.63;1.53;;;16.10;99.90;;;;;;6224289;23;20437;-83
2023/10/01 07:33:23;;;;;;;0.70;0.70;;;16.30;99.90;;;;;;6250140;23;20374;-82
2023/10/01 07:36:00;;;;;;;0.90;0.90;;;16.40;99.90;;;;;;6255229;22;20479;-82
2023/10/01 07:38:32;;;;;;;1.63;1.53;;;16.50;99.90;;;;;;6269061;22;20381;-83
2023/10/01 07:41:07;;;;;;;0.70;0.70;;;16.60;99.90;;;;;;6231131;23;20590;-82
2023/10/01 07:43:35;;;;;;;1.47;1.37;;;16.80;99.90;;;;;;6250783;23;20374;-82
2023/10/01 07:46:02;;;;;;;3.40;3.20;;;16.90;99.90;;;;;;6259787;23;20389;-83
2023/10/01 07:48:29;;;;;;;8.90;3.23;;;17.10;99.90;;;;;;6236054;23;20376;-78
2023/10/01 07:50:58;;;;;;;0.80;0.80;;;17.10;99.90;;;;;;6256455;23;20368;-79
2023/10/01 07:53:32;;;;;;;0.70;0.70;;;17.00;99.90;;;;;;6257260;23;20448;-81
2023/10/01 07:56:02;;;;;;;2.10;2.00;;;17.00;99.90;;;;;;6250616;23;20394;-81
2023/10/01 07:58:45;;;;;;;2.20;2.10;;;17.20;99.90;;;;;;6249601;23;20364;-82
2023/10/01 08:01:37;;;;;;;0.60;0.60;;;17.20;99.90;;;;;;6248562;23;20356;-81
2023/10/01 08:04:08;;;;;;;0.60;0.60;;;17.30;99.90;;;;;;6249353;23;20416;-89
2023/10/01 08:06:44;;;;;;;0.90;0.90;;;17.30;99.90;;;;;;6223765;23;20406;-80
2023/10/01 08:09:12;;;;;;;0.60;0.60;;;17.40;99.90;;;;;;6248767;23;20359;-79
2023/10/01 08:11:58;;;;;;;0.80;0.80;;;17.60;99.90;;;;;;6250354;23;20700;-82
2023/10/01 08:14:33;;;;;;;0.90;0.90;;;17.60;99.90;;;;;;6251101;23;20982;-81
2023/10/01 08:17:05;;;;;;;0.60;0.60;;;17.60;99.90;;;;;;6253096;23;20894;-82
2023/10/01 08:19:45;;;;;;;1.57;1.47;;;17.60;99.90;;;;;;6250891;23;20397;-80
2023/10/01 08:22:14;;;;;;;0.60;0.60;;;17.80;99.90;;;;;;6253979;23;20352;-80
2023/10/01 08:24:45;;;;;;;0.60;0.60;;;17.70;99.90;;;;;;6264719;23;20416;-81
2023/10/01 08:27:14;;;;;;;1.07;1.07;;;17.90;99.90;;;;;;6268239;23;20388;-80
2023/10/01 08:29:59;;;;;;;1.00;1.00;;;18.10;99.90;;;;;;6271079;22;20428;-80
2023/10/01 08:32:38;;;;;;;1.00;1.00;;;18.20;99.90;;;;;;6269156;22;20432;-81
2023/10/01 08:35:06;;;;;;;2.00;1.90;;;18.40;99.90;;;;;;6252376;23;20399;-80
2023/10/01 08:37:37;;;;;;;1.50;1.40;;;19.10;99.90;;;;;;6249829;23;20587;-81
2023/10/01 08:40:13;;;;;;;5.10;1.57;;;19.50;99.90;;;;;;6225172;23;20536;-81
2023/10/01 08:42:44;;;;;;;3.47;2.90;;;19.20;99.90;;;;;;6251760;23;20398;-80
2023/10/01 08:45:17;;;;;;;0.80;0.80;;;19.40;99.90;;;;;;6250818;23;20551;-79
2023/10/01 08:47:50;;;;;;;3.90;2.10;;;19.50;99.90;;;;;;6251659;23;20375;-79
2023/10/01 08:52:58;;;;;;;0.60;0.60;;;19.50;99.90;;;;;;6250679;23;20529;-81
2023/10/01 08:55:35;;;;;;;2.73;2.53;;;19.50;99.90;;;;;;6250995;23;20486;-81
2023/10/01 09:00:49;;;;;;;0.70;0.70;;;19.70;99.90;;;;;;6251615;23;20785;-81
2023/10/01 09:03:28;;;;;;;0.93;0.93;;;19.80;99.90;;;;;;6251613;23;20360;-82
2023/10/01 09:06:03;;;;;;;1.10;1.00;;;19.80;99.90;;;;;;6251319;23;20382;-80
2023/10/01 09:08:32;;;;;;;1.03;1.03;;;20.00;99.90;;;;;;6224572;23;20352;-84
2023/10/01 09:11:02;;;;;;;0.80;0.80;;;20.10;99.90;;;;;;6250849;23;20379;-79
2023/10/01 09:13:30;;;;;;;1.90;1.80;;;20.10;99.90;;;;;;6250176;23;20883;-80
2023/10/01 09:16:10;;;;;;;0.60;0.60;;;20.10;99.90;;;;;;6250867;23;20535;-81
2023/10/01 09:19:03;;;;;;;0.87;0.87;;;20.20;99.90;;;;;;6253777;23;20377;-82
2023/10/01 09:21:38;;;;;;;0.63;0.63;;;20.50;99.90;;;;;;6250270;23;20363;-82
2023/10/01 09:24:38;;;;;;;2.20;1.73;;;20.40;99.90;;;;;;6250941;23;20367;-85
2023/10/01 09:27:18;;;;;;;0.70;0.70;;;20.10;99.90;;;;;;6251883;23;20379;-83
2023/10/01 09:29:57;;;;;;;1.10;1.00;;;20.20;99.90;;;;;;6252342;23;20569;-82
2023/10/01 09:33:14;;;;;;;0.77;0.77;;;20.50;99.90;;;;;;6250547;23;20581;-82
2023/10/01 09:35:49;;;;;;;1.97;1.20;;;20.50;99.90;;;;;;6247437;23;20403;-83
2023/10/01 09:38:27;;;;;;;0.70;0.70;;;20.50;99.90;;;;;;6252375;23;20352;-87
2023/10/01 09:40:56;;;;;;;0.60;0.60;;;20.40;99.90;;;;;;6225290;23;20381;-84
2023/10/01 09:43:24;;;;;;;1.07;0.97;;;20.20;99.90;;;;;;6253964;23;20364;-82
2023/10/01 09:45:53;;;;;;;1.33;1.23;;;20.20;99.90;;;;;;6253858;23;20373;-83
2023/10/01 09:48:32;;;;;;;1.27;1.27;;;20.30;99.90;;;;;;6254556;23;20438;-81
2023/10/01 09:51:13;;;;;;;1.10;1.10;;;20.30;99.90;;;;;;6251906;23;20405;-80
2023/10/01 09:53:51;;;;;;;1.17;1.17;;;20.30;99.90;;;;;;6249254;23;20697;-79
2023/10/01 09:56:46;;;;;;;0.60;0.60;;;20.40;99.90;;;;;;6252757;23;20788;-80
2023/10/01 09:59:15;;;;;;;1.13;1.10;;;20.40;99.90;;;;;;6235669;23;20529;-79
2023/10/01 10:01:45;;;;;;;1.77;1.50;;;20.40;99.90;;;;;;6252073;23;20348;-80
2023/10/01 10:04:20;;;;;;;1.93;1.83;;;20.30;99.90;;;;;;6249662;23;20744;-79
2023/10/01 10:06:59;;;;;;;0.73;0.73;;;20.40;99.90;;;;;;6250417;23;20382;-78
2023/10/01 10:09:30;;;;;;;0.97;0.90;;;20.40;99.90;;;;;;6248785;23;20561;-78
2023/10/01 10:12:01;;;;;;;5.03;1.40;;;20.50;99.90;;;;;;6248606;23;20381;-78
2023/10/01 10:14:33;;;;;;;1.10;1.10;;;20.50;99.90;;;;;;6250056;23;20441;-84
2023/10/01 10:17:18;;;;;;;0.73;0.73;;;20.70;99.90;;;;;;6251326;23;20548;-80
2023/10/01 10:20:15;;;;;;;0.60;0.60;;;21.00;99.90;;;;;;6251490;23;20407;-81
2023/10/01 10:23:13;;;;;;;0.60;0.60;;;21.00;99.90;;;;;;6249811;23;20385;-82
2023/10/01 10:25:43;;;;;;;0.60;0.60;;;21.00;99.90;;;;;;6255142;23;20369;-84
2023/10/01 10:28:12;;;;;;;0.60;0.60;;;21.10;99.90;;;;;;6253146;23;20363;-81
2023/10/01 10:30:41;;;;;;;0.80;0.80;;;21.10;99.90;;;;;;6250724;23;20376;-83
2023/10/01 10:33:14;;;;;;;0.60;0.60;;;21.20;99.90;;;;;;6250301;23;20387;-84
2023/10/01 10:35:49;;;;;;;0.97;0.97;;;21.10;99.90;;;;;;6249175;23;20449;-81
2023/10/01 10:38:54;;;;;;;0.70;0.70;;;21.10;99.90;;;;;;6250207;23;20368;-81
2023/10/01 10:41:25;;;;;;;2.90;2.70;;;21.20;99.90;;;;;;6250986;23;20381;-84
2023/10/01 10:44:08;;;;;;;0.60;0.60;;;21.40;99.90;;;;;;6250453;23;20386;-83
2023/10/01 10:47:04;;;;;;;0.70;0.70;;;21.40;99.90;;;;;;6250574;23;20579;-81
2023/10/01 10:49:51;;;;;;;0.60;0.60;;;21.20;99.90;;;;;;6250040;23;20415;-86
2023/10/01 10:52:32;;;;;;;0.60;0.60;;;21.30;99.90;;;;;;6251092;23;20383;-82
2023/10/01 10:55:16;;;;;;;0.60;0.60;;;21.40;99.80;;;;;;6224571;23;20415;-84
2023/10/01 10:57:49;;;;;;;4.00;2.87;;;21.40;99.60;;;;;;6224014;23;20386;-82
2023/10/01 11:00:27;;;;;;;1.13;1.07;;;21.00;99.10;;;;;;6255319;23;20374;-81
2023/10/01 11:02:56;;;;;;;0.60;0.60;;;20.90;99.30;;;;;;6254070;23;20384;-80
2023/10/01 11:05:29;;;;;;;0.60;0.60;;;20.90;98.80;;;;;;6255578;23;20765;-82
2023/10/01 11:07:58;;;;;;;0.70;0.70;;;21.00;99.70;;;;;;6251382;23;20394;-78
2023/10/01 11:10:28;;;;;;;1.57;1.47;;;21.10;99.70;;;;;;6249262;23;20379;-78
2023/10/01 11:12:55;;;;;;;0.80;0.80;;;21.30;99.90;;;;;;6247739;23;20404;-79
2023/10/01 11:15:34;;;;;;;0.60;0.60;;;21.60;99.20;;;;;;6249294;23;20422;-78
2023/10/01 11:18:01;;;;;;;0.60;0.60;;;21.40;98.90;;;;;;6222154;23;20344;-78
2023/10/01 11:20:32;;;;;;;0.60;0.60;;;21.20;98.60;;;;;;6248188;23;20741;-77
2023/10/01 11:22:59;;;;;;;0.70;0.70;;;20.90;99.30;;;;;;6245839;23;21053;-78
2023/10/01 11:25:26;;;;;;;0.60;0.60;;;20.90;99.70;;;;;;6247677;23;20405;-77
2023/10/01 11:28:05;;;;;;;0.60;0.60;;;20.90;99.10;;;;;;6249321;23;20399;-80
2023/10/01 11:30:42;;;;;;;0.70;0.70;;;20.90;98.90;;;;;;6249976;23;20748;-79
2023/10/01 11:35:59;;;;;;;0.60;0.60;;;20.90;98.80;;;;;;6248630;23;20658;-77
2023/10/01 11:38:28;;;;;;;0.60;0.60;;;20.70;99.10;;;;;;6223020;23;20397;-78
2023/10/01 11:41:13;;;;;;;0.63;0.63;;;20.80;98.70;;;;;;6252167;23;20402;-79
2023/10/01 11:44:02;;;;;;;0.70;0.70;;;20.90;98.80;;;;;;6272539;22;20410;-79
2023/10/01 11:46:35;;;;;;;0.70;0.70;;;20.90;98.80;;;;;;6271743;23;20361;-79
2023/10/01 11:49:09;;;;;;;0.70;0.70;;;20.90;99.00;;;;;;6243741;23;20347;-79
2023/10/01 11:51:48;;;;;;;3.80;2.33;;;20.80;99.10;;;;;;6255198;23;20406;-79
2023/10/01 11:54:21;;;;;;;7.40;2.67;;;21.00;99.10;;;;;;6251183;23;20571;-77
2023/10/01 11:57:06;;;;;;;1.00;1.00;;;21.20;99.00;;;;;;6249321;23;20395;-78
2023/10/01 11:59:36;;;;;;;0.80;0.80;;;21.50;98.70;;;;;;6247618;23;20756;-78
2023/10/01 12:02:20;;;;;;;0.70;0.70;;;21.70;97.50;;;;;;6248157;23;20426;-79
2023/10/01 12:04:59;;;;;;;0.80;0.80;;;21.20;97.50;;;;;;6249201;23;20919;-78
2023/10/01 12:07:32;;;;;;;0.60;0.60;;;20.90;98.70;;;;;;6249528;23;20382;-79
2023/10/01 12:10:04;;;;;;;1.00;1.00;;;21.20;98.80;;;;;;6248971;23;20352;-79
2023/10/01 12:12:38;;;;;;;1.30;1.20;;;21.20;98.30;;;;;;6221997;23;20377;-77
2023/10/01 12:17:52;;;;;;;0.60;0.60;;;21.10;98.20;;;;;;6250698;23;20356;-81
2023/10/01 12:20:22;;;;;;;0.60;0.60;;;21.20;98.70;;;;;;6250502;23;20552;-78
2023/10/01 12:23:11;;;;;;;5.23;1.53;;;21.60;98.10;;;;;;6250070;23;20389;-78
2023/10/01 12:25:46;;;;;;;2.03;1.07;;;21.70;97.60;;;;;;6250801;23;20409;-78
2023/10/01 12:28:18;;;;;;;0.70;0.70;;;21.80;97.10;;;;;;6251060;23;20390;-79
2023/10/01 12:30:57;;;;;;;0.70;0.70;;;21.80;97.00;;;;;;6223964;23;20375;-81
2023/10/01 12:33:42;;;;;;;0.70;0.70;;;21.70;96.50;;;;;;6252626;23;20360;-80
2023/10/01 12:36:31;;;;;;;1.00;1.00;;;21.50;96.60;;;;;;6227510;23;20400;-79
2023/10/01 12:41:47;;;;;;;1.10;1.07;;;21.00;97.60;;;;;;6251400;23;20394;-77
2023/10/01 12:44:33;;;;;;;0.70;0.70;;;21.10;97.50;;;;;;6251002;23;20578;-76
2023/10/01 12:47:02;;;;;;;0.70;0.70;;;20.90;97.00;;;;;;6250121;23;20423;-79
2023/10/01 12:49:32;;;;;;;0.60;0.60;;;20.60;97.40;;;;;;6223795;23;20933;-76
2023/10/01 12:52:01;;;;;;;0.60;0.60;;;20.40;98.10;;;;;;6250708;23;20365;-77
2023/10/01 12:54:28;;;;;;;0.97;0.97;;;20.20;98.30;;;;;;6224278;23;20868;-80
2023/10/01 12:59:44;;;;;;;0.70;0.70;;;20.20;98.10;;;;;;6258907;23;20437;-78
2023/10/01 13:02:22;;;;;;;0.90;0.90;;;20.30;97.90;;;;;;6263965;23;20467;-78
2023/10/01 13:07:52;;;;;;;0.70;0.70;;;20.40;98.60;;;;;;6262240;23;20344;-78
2023/10/01 13:10:33;;;;;;;0.77;0.77;;;20.50;98.10;;;;;;6252051;23;20701;-77
2023/10/01 13:13:05;;;;;;;0.80;0.80;;;20.50;98.20;;;;;;6225327;23;20406;-77
2023/10/01 13:15:42;;;;;;;0.70;0.70;;;20.60;98.20;;;;;;6224394;23;20424;-77
2023/10/01 13:18:16;;;;;;;0.70;0.70;;;20.60;98.20;;;;;;6250359;23;20419;-76
2023/10/01 13:23:28;;;;;;;1.10;1.10;;;20.90;96.80;;;;;;6250509;23;20379;-77
2023/10/01 13:26:15;;;;;;;1.57;1.37;;;21.00;96.60;;;;;;6250579;23;20386;-80
2023/10/01 13:28:45;;;;;;;0.90;0.90;;;21.00;97.10;;;;;;6249433;23;20352;-78
2023/10/01 14:10:15;;;;;;;0.90;0.90;;;20.60;97.90;;;;;;6223396;23;20408;-77
2023/10/01 14:12:54;;;;;;;0.60;0.60;;;20.70;97.80;;;;;;6248870;23;20385;-80
2023/10/01 14:15:23;;;;;;;0.60;0.60;;;20.60;97.60;;;;;;6248487;23;20433;-77
2023/10/01 14:17:55;;;;;;;1.90;1.37;;;20.50;98.00;;;;;;6249636;23;20383;-77
2023/10/01 14:23:10;;;;;;;0.60;0.60;;;20.60;97.90;;;;;;6247449;23;20356;-78
2023/10/01 14:25:52;;;;;;;0.70;0.70;;;20.70;97.80;;;;;;6248071;23;21008;-76
2023/10/01 14:28:23;;;;;;;0.60;0.60;;;20.60;97.90;;;;;;6247204;23;20381;-76
2023/10/01 14:30:50;;;;;;;0.70;0.70;;;20.60;98.40;;;;;;6247362;23;20397;-76
2023/10/01 14:33:25;;;;;;;0.70;0.70;;;20.60;98.60;;;;;;6246759;23;20398;-77
2023/10/01 14:35:54;;;;;;;0.60;0.60;;;20.60;98.40;;;;;;6248119;23;20396;-78
2023/10/01 14:38:46;;;;;;;0.80;0.80;;;20.60;97.70;;;;;;6250827;23;20425;-78
2023/10/01 14:41:15;;;;;;;0.90;0.90;;;20.40;97.80;;;;;;6224092;23;20352;-75
2023/10/01 14:43:51;;;;;;;0.60;0.60;;;20.30;97.90;;;;;;6248039;23;20495;-76
2023/10/01 14:46:33;;;;;;;0.60;0.60;;;20.30;97.80;;;;;;6248237;23;20412;-78
2023/10/01 14:49:07;;;;;;;0.60;0.60;;;20.20;98.30;;;;;;6244654;23;20402;-79
2023/10/01 14:51:35;;;;;;;0.70;0.70;;;20.20;97.80;;;;;;6248303;23;20390;-78
2023/10/01 14:54:05;;;;;;;0.70;0.70;;;20.20;97.90;;;;;;6248359;23;20390;-77
2023/10/01 14:56:33;;;;;;;0.70;0.70;;;20.20;97.50;;;;;;6248949;23;20658;-76